sensor_id;sensor_type;location;lat;lon;timestamp;P1;durP1;ratioP1;P2;durP2;ratioP2
51660;SDS011;37741;49.748;8.490;2023-08-20T00:01:50;4.50;;;2.75;;
51660;SDS011;37741;49.748;8.490;2023-08-20T00:04:21;3.83;;;3.05;;
51660;SDS011;37741;49.748;8.490;2023-08-20T00:06:50;4.70;;;3.40;;
51660;SDS011;37741;49.748;8.490;2023-08-20T00:09:16;4.80;;;2.90;;
51660;SDS011;37741;49.748;8.490;2023-08-20T00:11:42;4.88;;;3.25;;
51660;SDS011;37741;49.748;8.490;2023-08-20T00:14:07;4.07;;;3.05;;
51660;SDS011;37741;49.748;8.490;2023-08-20T00:16:33;3.72;;;2.90;;
51660;SDS011;37741;49.748;8.490;2023-08-20T00:18:59;4.20;;;3.13;;
51660;SDS011;37741;49.748;8.490;2023-08-20T00:21:25;5.93;;;3.10;;
51660;SDS011;37741;49.748;8.490;2023-08-20T00:23:53;4.00;;;3.60;;
51660;SDS011;37741;49.748;8.490;2023-08-20T00:26:19;5.13;;;2.85;;
51660;SDS011;37741;49.748;8.490;2023-08-20T00:28:44;3.95;;;2.88;;
51660;SDS011;37741;49.748;8.490;2023-08-20T00:31:10;4.38;;;2.92;;
51660;SDS011;37741;49.748;8.490;2023-08-20T00:33:35;3.58;;;3.05;;
51660;SDS011;37741;49.748;8.490;2023-08-20T00:36:01;3.58;;;2.80;;
51660;SDS011;37741;49.748;8.490;2023-08-20T00:38:27;3.97;;;2.90;;
51660;SDS011;37741;49.748;8.490;2023-08-20T00:40:53;4.18;;;3.10;;
51660;SDS011;37741;49.748;8.490;2023-08-20T00:43:18;3.55;;;3.00;;
51660;SDS011;37741;49.748;8.490;2023-08-20T00:45:44;4.30;;;3.28;;
51660;SDS011;37741;49.748;8.490;2023-08-20T00:48:10;5.70;;;3.10;;
51660;SDS011;37741;49.748;8.490;2023-08-20T00:50:36;4.50;;;2.70;;
51660;SDS011;37741;49.748;8.490;2023-08-20T00:53:03;3.55;;;2.75;;
51660;SDS011;37741;49.748;8.490;2023-08-20T00:55:29;4.47;;;3.00;;
51660;SDS011;37741;49.748;8.490;2023-08-20T00:57:54;4.22;;;2.97;;
51660;SDS011;37741;49.748;8.490;2023-08-20T01:00:20;3.72;;;2.72;;
51660;SDS011;37741;49.748;8.490;2023-08-20T01:02:48;4.10;;;2.90;;
51660;SDS011;37741;49.748;8.490;2023-08-20T01:05:13;3.78;;;2.72;;
51660;SDS011;37741;49.748;8.490;2023-08-20T01:13:20;4.78;;;2.95;;
51660;SDS011;37741;49.748;8.490;2023-08-20T01:15:46;4.32;;;3.13;;
51660;SDS011;37741;49.748;8.490;2023-08-20T01:18:12;3.90;;;2.90;;
51660;SDS011;37741;49.748;8.490;2023-08-20T01:20:41;4.57;;;2.97;;
51660;SDS011;37741;49.748;8.490;2023-08-20T01:28:45;3.55;;;2.80;;
51660;SDS011;37741;49.748;8.490;2023-08-20T01:31:11;4.78;;;3.17;;
51660;SDS011;37741;49.748;8.490;2023-08-20T01:33:37;3.63;;;3.00;;
51660;SDS011;37741;49.748;8.490;2023-08-20T01:36:06;3.80;;;2.95;;
51660;SDS011;37741;49.748;8.490;2023-08-20T01:38:34;4.55;;;2.95;;
51660;SDS011;37741;49.748;8.490;2023-08-20T01:41:00;3.85;;;2.80;;
51660;SDS011;37741;49.748;8.490;2023-08-20T01:43:26;3.70;;;2.90;;
51660;SDS011;37741;49.748;8.490;2023-08-20T01:45:52;5.15;;;3.70;;
51660;SDS011;37741;49.748;8.490;2023-08-20T01:48:18;4.13;;;3.15;;
51660;SDS011;37741;49.748;8.490;2023-08-20T01:50:43;4.47;;;3.53;;
51660;SDS011;37741;49.748;8.490;2023-08-20T01:53:10;5.25;;;3.20;;
51660;SDS011;37741;49.748;8.490;2023-08-20T01:55:36;5.18;;;3.45;;
51660;SDS011;37741;49.748;8.490;2023-08-20T01:58:02;5.00;;;3.53;;
51660;SDS011;37741;49.748;8.490;2023-08-20T02:00:28;4.82;;;3.30;;
51660;SDS011;37741;49.748;8.490;2023-08-20T02:02:55;4.60;;;3.00;;
51660;SDS011;37741;49.748;8.490;2023-08-20T02:05:21;6.22;;;3.88;;
51660;SDS011;37741;49.748;8.490;2023-08-20T02:07:46;4.35;;;3.45;;
51660;SDS011;37741;49.748;8.490;2023-08-20T02:10:12;5.03;;;3.53;;
51660;SDS011;37741;49.748;8.490;2023-08-20T02:12:38;5.03;;;3.63;;
51660;SDS011;37741;49.748;8.490;2023-08-20T02:15:04;4.03;;;3.17;;
51660;SDS011;37741;49.748;8.490;2023-08-20T02:17:30;4.60;;;3.60;;
51660;SDS011;37741;49.748;8.490;2023-08-20T02:19:56;6.35;;;3.45;;
51660;SDS011;37741;49.748;8.490;2023-08-20T02:22:21;5.15;;;3.72;;
51660;SDS011;37741;49.748;8.490;2023-08-20T02:24:47;5.88;;;3.60;;
51660;SDS011;37741;49.748;8.490;2023-08-20T02:27:13;3.50;;;3.13;;
51660;SDS011;37741;49.748;8.490;2023-08-20T02:29:38;4.05;;;3.42;;
51660;SDS011;37741;49.748;8.490;2023-08-20T02:32:04;4.63;;;3.15;;
51660;SDS011;37741;49.748;8.490;2023-08-20T02:34:30;5.00;;;3.90;;
51660;SDS011;37741;49.748;8.490;2023-08-20T02:36:55;4.40;;;3.47;;
51660;SDS011;37741;49.748;8.490;2023-08-20T02:39:21;4.18;;;3.67;;
51660;SDS011;37741;49.748;8.490;2023-08-20T02:41:46;7.68;;;4.15;;
51660;SDS011;37741;49.748;8.490;2023-08-20T02:44:12;5.13;;;2.92;;
51660;SDS011;37741;49.748;8.490;2023-08-20T02:46:38;6.32;;;3.60;;
51660;SDS011;37741;49.748;8.490;2023-08-20T02:49:05;4.65;;;3.50;;
51660;SDS011;37741;49.748;8.490;2023-08-20T02:51:31;4.55;;;3.85;;
51660;SDS011;37741;49.748;8.490;2023-08-20T02:53:56;5.00;;;3.50;;
51660;SDS011;37741;49.748;8.490;2023-08-20T02:56:22;5.90;;;3.20;;
51660;SDS011;37741;49.748;8.490;2023-08-20T02:58:47;5.35;;;3.33;;
51660;SDS011;37741;49.748;8.490;2023-08-20T03:01:23;4.22;;;3.50;;
51660;SDS011;37741;49.748;8.490;2023-08-20T03:03:50;5.47;;;3.33;;
51660;SDS011;37741;49.748;8.490;2023-08-20T03:06:16;4.25;;;3.45;;
51660;SDS011;37741;49.748;8.490;2023-08-20T03:08:42;4.80;;;3.88;;
51660;SDS011;37741;49.748;8.490;2023-08-20T03:11:07;5.63;;;3.40;;
51660;SDS011;37741;49.748;8.490;2023-08-20T03:13:33;5.18;;;3.55;;
51660;SDS011;37741;49.748;8.490;2023-08-20T03:15:58;5.10;;;3.95;;
51660;SDS011;37741;49.748;8.490;2023-08-20T03:18:24;4.65;;;3.55;;
51660;SDS011;37741;49.748;8.490;2023-08-20T03:20:50;5.28;;;3.88;;
51660;SDS011;37741;49.748;8.490;2023-08-20T03:23:15;5.40;;;3.50;;
51660;SDS011;37741;49.748;8.490;2023-08-20T03:25:41;5.10;;;3.40;;
51660;SDS011;37741;49.748;8.490;2023-08-20T03:28:06;5.95;;;3.75;;
51660;SDS011;37741;49.748;8.490;2023-08-20T03:30:32;5.97;;;3.83;;
51660;SDS011;37741;49.748;8.490;2023-08-20T03:32:58;5.47;;;3.85;;
51660;SDS011;37741;49.748;8.490;2023-08-20T03:35:24;5.25;;;3.95;;
51660;SDS011;37741;49.748;8.490;2023-08-20T03:37:50;4.80;;;3.95;;
51660;SDS011;37741;49.748;8.490;2023-08-20T03:40:15;4.78;;;3.67;;
51660;SDS011;37741;49.748;8.490;2023-08-20T03:42:43;5.38;;;4.07;;
51660;SDS011;37741;49.748;8.490;2023-08-20T03:45:08;4.97;;;4.25;;
51660;SDS011;37741;49.748;8.490;2023-08-20T03:47:34;5.22;;;4.00;;
51660;SDS011;37741;49.748;8.490;2023-08-20T03:50:01;5.95;;;4.13;;
51660;SDS011;37741;49.748;8.490;2023-08-20T03:52:27;5.20;;;3.70;;
51660;SDS011;37741;49.748;8.490;2023-08-20T03:54:53;5.90;;;4.05;;
51660;SDS011;37741;49.748;8.490;2023-08-20T03:57:18;5.13;;;4.20;;
51660;SDS011;37741;49.748;8.490;2023-08-20T03:59:44;5.70;;;4.50;;
51660;SDS011;37741;49.748;8.490;2023-08-20T04:02:10;5.30;;;3.92;;
51660;SDS011;37741;49.748;8.490;2023-08-20T04:04:36;4.35;;;3.70;;
51660;SDS011;37741;49.748;8.490;2023-08-20T04:07:02;5.18;;;4.20;;
51660;SDS011;37741;49.748;8.490;2023-08-20T04:09:28;7.45;;;4.50;;
51660;SDS011;37741;49.748;8.490;2023-08-20T04:11:53;7.13;;;4.07;;
51660;SDS011;37741;49.748;8.490;2023-08-20T04:14:19;5.20;;;3.95;;
51660;SDS011;37741;49.748;8.490;2023-08-20T04:16:44;5.78;;;4.10;;
51660;SDS011;37741;49.748;8.490;2023-08-20T04:19:10;5.38;;;4.18;;
51660;SDS011;37741;49.748;8.490;2023-08-20T04:21:36;5.70;;;4.28;;
51660;SDS011;37741;49.748;8.490;2023-08-20T04:24:02;7.28;;;4.13;;
51660;SDS011;37741;49.748;8.490;2023-08-20T04:26:27;5.05;;;4.20;;
51660;SDS011;37741;49.748;8.490;2023-08-20T04:28:53;5.95;;;4.30;;
51660;SDS011;37741;49.748;8.490;2023-08-20T04:31:18;5.80;;;4.25;;
51660;SDS011;37741;49.748;8.490;2023-08-20T04:33:45;11.48;;;5.10;;
51660;SDS011;37741;49.748;8.490;2023-08-20T04:36:10;6.47;;;4.30;;
51660;SDS011;37741;49.748;8.490;2023-08-20T04:38:36;4.40;;;3.80;;
51660;SDS011;37741;49.748;8.490;2023-08-20T04:41:02;4.40;;;3.78;;
51660;SDS011;37741;49.748;8.490;2023-08-20T04:43:27;5.82;;;4.47;;
51660;SDS011;37741;49.748;8.490;2023-08-20T04:45:53;6.43;;;4.78;;
51660;SDS011;37741;49.748;8.490;2023-08-20T04:48:18;5.22;;;4.60;;
51660;SDS011;37741;49.748;8.490;2023-08-20T04:50:44;5.65;;;4.57;;
51660;SDS011;37741;49.748;8.490;2023-08-20T04:53:09;5.85;;;4.63;;
51660;SDS011;37741;49.748;8.490;2023-08-20T04:55:35;8.45;;;4.05;;
51660;SDS011;37741;49.748;8.490;2023-08-20T04:58:01;6.65;;;4.13;;
51660;SDS011;37741;49.748;8.490;2023-08-20T05:00:27;6.05;;;4.18;;
51660;SDS011;37741;49.748;8.490;2023-08-20T05:02:53;4.88;;;4.05;;
51660;SDS011;37741;49.748;8.490;2023-08-20T05:05:21;5.75;;;4.20;;
51660;SDS011;37741;49.748;8.490;2023-08-20T05:07:46;11.50;;;4.88;;
51660;SDS011;37741;49.748;8.490;2023-08-20T05:10:12;8.00;;;4.65;;
51660;SDS011;37741;49.748;8.490;2023-08-20T05:12:38;5.95;;;4.50;;
51660;SDS011;37741;49.748;8.490;2023-08-20T05:15:03;6.43;;;4.28;;
51660;SDS011;37741;49.748;8.490;2023-08-20T05:17:29;4.85;;;4.13;;
51660;SDS011;37741;49.748;8.490;2023-08-20T05:19:55;5.75;;;4.88;;
51660;SDS011;37741;49.748;8.490;2023-08-20T05:22:20;8.48;;;4.90;;
51660;SDS011;37741;49.748;8.490;2023-08-20T05:24:46;7.22;;;4.82;;
51660;SDS011;37741;49.748;8.490;2023-08-20T05:27:14;5.00;;;4.22;;
51660;SDS011;37741;49.748;8.490;2023-08-20T05:29:42;5.60;;;4.45;;
51660;SDS011;37741;49.748;8.490;2023-08-20T05:32:07;4.95;;;4.07;;
51660;SDS011;37741;49.748;8.490;2023-08-20T05:34:33;5.72;;;4.47;;
51660;SDS011;37741;49.748;8.490;2023-08-20T05:36:59;5.28;;;4.47;;
51660;SDS011;37741;49.748;8.490;2023-08-20T05:39:25;6.60;;;5.53;;
51660;SDS011;37741;49.748;8.490;2023-08-20T05:41:52;5.95;;;4.65;;
51660;SDS011;37741;49.748;8.490;2023-08-20T05:44:18;5.97;;;4.25;;
51660;SDS011;37741;49.748;8.490;2023-08-20T05:46:43;6.55;;;4.72;;
51660;SDS011;37741;49.748;8.490;2023-08-20T05:49:09;4.90;;;4.30;;
51660;SDS011;37741;49.748;8.490;2023-08-20T05:51:35;7.50;;;4.57;;
51660;SDS011;37741;49.748;8.490;2023-08-20T05:54:00;5.95;;;4.53;;
51660;SDS011;37741;49.748;8.490;2023-08-20T05:56:26;7.57;;;4.30;;
51660;SDS011;37741;49.748;8.490;2023-08-20T05:58:51;4.63;;;4.10;;
51660;SDS011;37741;49.748;8.490;2023-08-20T06:01:17;6.72;;;4.90;;
51660;SDS011;37741;49.748;8.490;2023-08-20T06:03:42;6.70;;;4.70;;
51660;SDS011;37741;49.748;8.490;2023-08-20T06:06:08;5.75;;;4.40;;
51660;SDS011;37741;49.748;8.490;2023-08-20T06:08:34;5.97;;;4.35;;
51660;SDS011;37741;49.748;8.490;2023-08-20T06:10:59;5.63;;;4.43;;
51660;SDS011;37741;49.748;8.490;2023-08-20T06:13:25;6.63;;;4.55;;
51660;SDS011;37741;49.748;8.490;2023-08-20T06:15:50;4.93;;;4.25;;
51660;SDS011;37741;49.748;8.490;2023-08-20T06:18:16;5.57;;;4.47;;
51660;SDS011;37741;49.748;8.490;2023-08-20T06:20:41;7.85;;;4.97;;
51660;SDS011;37741;49.748;8.490;2023-08-20T06:23:07;5.82;;;4.20;;
51660;SDS011;37741;49.748;8.490;2023-08-20T06:25:33;5.85;;;4.82;;
51660;SDS011;37741;49.748;8.490;2023-08-20T06:27:58;5.25;;;4.68;;
51660;SDS011;37741;49.748;8.490;2023-08-20T06:30:24;5.03;;;4.22;;
51660;SDS011;37741;49.748;8.490;2023-08-20T06:32:49;6.82;;;4.47;;
51660;SDS011;37741;49.748;8.490;2023-08-20T06:35:15;6.07;;;4.38;;
51660;SDS011;37741;49.748;8.490;2023-08-20T06:37:41;6.63;;;4.80;;
51660;SDS011;37741;49.748;8.490;2023-08-20T06:40:07;4.80;;;4.30;;
51660;SDS011;37741;49.748;8.490;2023-08-20T06:42:33;5.70;;;3.97;;
51660;SDS011;37741;49.748;8.490;2023-08-20T06:44:58;6.68;;;5.18;;
51660;SDS011;37741;49.748;8.490;2023-08-20T06:47:24;5.25;;;4.32;;
51660;SDS011;37741;49.748;8.490;2023-08-20T06:49:50;5.80;;;4.85;;
51660;SDS011;37741;49.748;8.490;2023-08-20T06:52:16;7.57;;;4.35;;
51660;SDS011;37741;49.748;8.490;2023-08-20T06:54:42;6.75;;;5.10;;
51660;SDS011;37741;49.748;8.490;2023-08-20T06:57:07;5.43;;;4.18;;
51660;SDS011;37741;49.748;8.490;2023-08-20T06:59:33;7.25;;;4.63;;
51660;SDS011;37741;49.748;8.490;2023-08-20T07:01:59;6.80;;;4.82;;
51660;SDS011;37741;49.748;8.490;2023-08-20T07:04:24;9.85;;;4.47;;
51660;SDS011;37741;49.748;8.490;2023-08-20T07:06:50;7.32;;;5.00;;
51660;SDS011;37741;49.748;8.490;2023-08-20T07:09:16;7.32;;;5.25;;
51660;SDS011;37741;49.748;8.490;2023-08-20T07:11:42;8.20;;;4.80;;
51660;SDS011;37741;49.748;8.490;2023-08-20T07:14:07;5.57;;;4.72;;
51660;SDS011;37741;49.748;8.490;2023-08-20T07:16:33;11.32;;;5.10;;
51660;SDS011;37741;49.748;8.490;2023-08-20T07:18:58;6.25;;;5.05;;
51660;SDS011;37741;49.748;8.490;2023-08-20T07:21:24;7.05;;;5.53;;
51660;SDS011;37741;49.748;8.490;2023-08-20T07:23:50;5.43;;;4.80;;
51660;SDS011;37741;49.748;8.490;2023-08-20T07:26:16;6.85;;;4.53;;
51660;SDS011;37741;49.748;8.490;2023-08-20T07:28:41;9.27;;;4.80;;
51660;SDS011;37741;49.748;8.490;2023-08-20T07:31:23;7.45;;;4.93;;
51660;SDS011;37741;49.748;8.490;2023-08-20T07:33:55;5.00;;;4.43;;
51660;SDS011;37741;49.748;8.490;2023-08-20T07:36:22;6.30;;;5.18;;
51660;SDS011;37741;49.748;8.490;2023-08-20T07:38:49;6.85;;;5.18;;
51660;SDS011;37741;49.748;8.490;2023-08-20T07:41:15;5.43;;;4.60;;
51660;SDS011;37741;49.748;8.490;2023-08-20T07:43:44;9.10;;;5.43;;
51660;SDS011;37741;49.748;8.490;2023-08-20T07:46:09;8.73;;;5.07;;
51660;SDS011;37741;49.748;8.490;2023-08-20T07:48:35;5.10;;;4.60;;
51660;SDS011;37741;49.748;8.490;2023-08-20T07:51:01;5.63;;;4.82;;
51660;SDS011;37741;49.748;8.490;2023-08-20T07:53:27;5.85;;;5.15;;
51660;SDS011;37741;49.748;8.490;2023-08-20T07:55:54;7.10;;;4.78;;
51660;SDS011;37741;49.748;8.490;2023-08-20T07:58:20;5.45;;;4.65;;
51660;SDS011;37741;49.748;8.490;2023-08-20T08:00:45;5.82;;;4.93;;
51660;SDS011;37741;49.748;8.490;2023-08-20T08:03:11;7.38;;;4.82;;
51660;SDS011;37741;49.748;8.490;2023-08-20T08:05:39;4.80;;;4.30;;
51660;SDS011;37741;49.748;8.490;2023-08-20T08:08:17;6.03;;;4.72;;
51660;SDS011;37741;49.748;8.490;2023-08-20T08:10:44;7.38;;;4.70;;
51660;SDS011;37741;49.748;8.490;2023-08-20T08:13:14;7.68;;;5.75;;
51660;SDS011;37741;49.748;8.490;2023-08-20T08:15:41;6.43;;;5.53;;
51660;SDS011;37741;49.748;8.490;2023-08-20T08:18:07;6.30;;;5.38;;
51660;SDS011;37741;49.748;8.490;2023-08-20T08:20:33;7.85;;;5.60;;
51660;SDS011;37741;49.748;8.490;2023-08-20T08:22:59;6.78;;;5.65;;
51660;SDS011;37741;49.748;8.490;2023-08-20T08:25:25;10.77;;;6.07;;
51660;SDS011;37741;49.748;8.490;2023-08-20T08:27:51;6.70;;;6.00;;
51660;SDS011;37741;49.748;8.490;2023-08-20T08:30:17;6.75;;;5.50;;
51660;SDS011;37741;49.748;8.490;2023-08-20T08:32:43;7.10;;;6.00;;
51660;SDS011;37741;49.748;8.490;2023-08-20T08:35:08;9.60;;;5.93;;
51660;SDS011;37741;49.748;8.490;2023-08-20T08:37:34;7.93;;;5.18;;
51660;SDS011;37741;49.748;8.490;2023-08-20T08:40:00;7.25;;;5.43;;
51660;SDS011;37741;49.748;8.490;2023-08-20T08:42:28;8.30;;;5.38;;
51660;SDS011;37741;49.748;8.490;2023-08-20T08:44:54;7.32;;;5.00;;
51660;SDS011;37741;49.748;8.490;2023-08-20T08:47:21;6.75;;;4.90;;
51660;SDS011;37741;49.748;8.490;2023-08-20T08:49:48;8.82;;;5.30;;
51660;SDS011;37741;49.748;8.490;2023-08-20T08:52:17;8.43;;;5.15;;
51660;SDS011;37741;49.748;8.490;2023-08-20T08:54:44;5.97;;;5.30;;
51660;SDS011;37741;49.748;8.490;2023-08-20T08:57:12;5.78;;;5.28;;
51660;SDS011;37741;49.748;8.490;2023-08-20T08:59:37;8.88;;;6.25;;
51660;SDS011;37741;49.748;8.490;2023-08-20T09:02:07;6.28;;;5.65;;
51660;SDS011;37741;49.748;8.490;2023-08-20T09:04:34;7.57;;;5.32;;
51660;SDS011;37741;49.748;8.490;2023-08-20T09:07:04;6.93;;;5.50;;
51660;SDS011;37741;49.748;8.490;2023-08-20T09:09:30;5.95;;;5.35;;
51660;SDS011;37741;49.748;8.490;2023-08-20T09:11:56;6.38;;;5.60;;
51660;SDS011;37741;49.748;8.490;2023-08-20T09:14:22;6.70;;;5.90;;
51660;SDS011;37741;49.748;8.490;2023-08-20T09:16:59;6.57;;;5.72;;
51660;SDS011;37741;49.748;8.490;2023-08-20T09:19:30;9.95;;;5.45;;
51660;SDS011;37741;49.748;8.490;2023-08-20T09:22:00;5.95;;;5.30;;
51660;SDS011;37741;49.748;8.490;2023-08-20T09:24:26;9.75;;;6.22;;
51660;SDS011;37741;49.748;8.490;2023-08-20T09:27:17;6.63;;;5.93;;
51660;SDS011;37741;49.748;8.490;2023-08-20T09:29:44;6.95;;;5.85;;
51660;SDS011;37741;49.748;8.490;2023-08-20T09:32:13;8.90;;;6.20;;
51660;SDS011;37741;49.748;8.490;2023-08-20T09:34:43;7.05;;;5.53;;
51660;SDS011;37741;49.748;8.490;2023-08-20T09:37:09;6.68;;;5.88;;
51660;SDS011;37741;49.748;8.490;2023-08-20T09:39:39;7.38;;;5.60;;
51660;SDS011;37741;49.748;8.490;2023-08-20T09:42:10;6.57;;;5.45;;
51660;SDS011;37741;49.748;8.490;2023-08-20T09:44:37;6.90;;;6.15;;
51660;SDS011;37741;49.748;8.490;2023-08-20T09:49:43;8.07;;;5.45;;
51660;SDS011;37741;49.748;8.490;2023-08-20T09:52:11;6.60;;;5.72;;
51660;SDS011;37741;49.748;8.490;2023-08-20T09:55:03;7.15;;;6.20;;
51660;SDS011;37741;49.748;8.490;2023-08-20T09:57:41;7.25;;;5.63;;
51660;SDS011;37741;49.748;8.490;2023-08-20T10:00:07;8.45;;;5.82;;
51660;SDS011;37741;49.748;8.490;2023-08-20T10:02:38;5.88;;;5.38;;
51660;SDS011;37741;49.748;8.490;2023-08-20T10:05:08;6.03;;;5.32;;
51660;SDS011;37741;49.748;8.490;2023-08-20T10:07:35;7.45;;;5.25;;
51660;SDS011;37741;49.748;8.490;2023-08-20T10:10:11;7.50;;;5.25;;
51660;SDS011;37741;49.748;8.490;2023-08-20T10:12:38;6.70;;;5.53;;
51660;SDS011;37741;49.748;8.490;2023-08-20T10:15:05;6.20;;;5.60;;
51660;SDS011;37741;49.748;8.490;2023-08-20T10:17:33;9.80;;;6.05;;
51660;SDS011;37741;49.748;8.490;2023-08-20T10:20:00;6.82;;;4.93;;
51660;SDS011;37741;49.748;8.490;2023-08-20T10:22:37;6.53;;;4.50;;
51660;SDS011;37741;49.748;8.490;2023-08-20T10:25:07;7.03;;;5.20;;
51660;SDS011;37741;49.748;8.490;2023-08-20T10:27:35;6.50;;;5.30;;
51660;SDS011;37741;49.748;8.490;2023-08-20T10:30:11;5.72;;;5.13;;
51660;SDS011;37741;49.748;8.490;2023-08-20T10:32:43;5.55;;;4.70;;
51660;SDS011;37741;49.748;8.490;2023-08-20T10:35:26;7.85;;;5.45;;
51660;SDS011;37741;49.748;8.490;2023-08-20T10:38:06;5.63;;;4.65;;
51660;SDS011;37741;49.748;8.490;2023-08-20T10:43:33;5.93;;;5.32;;
51660;SDS011;37741;49.748;8.490;2023-08-20T10:51:33;6.10;;;5.15;;
51660;SDS011;37741;49.748;8.490;2023-08-20T10:59:07;9.10;;;5.30;;
51660;SDS011;37741;49.748;8.490;2023-08-20T11:02:02;5.45;;;4.88;;
51660;SDS011;37741;49.748;8.490;2023-08-20T11:04:32;6.57;;;5.40;;
51660;SDS011;37741;49.748;8.490;2023-08-20T11:06:58;5.65;;;5.05;;
51660;SDS011;37741;49.748;8.490;2023-08-20T11:09:25;7.18;;;5.63;;
51660;SDS011;37741;49.748;8.490;2023-08-20T11:11:52;5.95;;;5.22;;
51660;SDS011;37741;49.748;8.490;2023-08-20T11:14:19;8.13;;;4.88;;
51660;SDS011;37741;49.748;8.490;2023-08-20T11:16:46;10.10;;;5.35;;
51660;SDS011;37741;49.748;8.490;2023-08-20T11:19:13;5.85;;;5.32;;
51660;SDS011;37741;49.748;8.490;2023-08-20T11:21:40;5.82;;;4.65;;
51660;SDS011;37741;49.748;8.490;2023-08-20T11:24:07;8.07;;;5.28;;
51660;SDS011;37741;49.748;8.490;2023-08-20T11:26:34;6.40;;;5.00;;
51660;SDS011;37741;49.748;8.490;2023-08-20T11:29:00;6.57;;;5.00;;
51660;SDS011;37741;49.748;8.490;2023-08-20T11:31:30;5.55;;;4.80;;
51660;SDS011;37741;49.748;8.490;2023-08-20T11:33:56;7.30;;;4.68;;
51660;SDS011;37741;49.748;8.490;2023-08-20T11:36:22;6.10;;;4.30;;
51660;SDS011;37741;49.748;8.490;2023-08-20T11:38:52;5.53;;;4.78;;
51660;SDS011;37741;49.748;8.490;2023-08-20T11:41:19;7.55;;;5.07;;
51660;SDS011;37741;49.748;8.490;2023-08-20T11:43:46;5.72;;;4.40;;
51660;SDS011;37741;49.748;8.490;2023-08-20T11:46:13;5.78;;;4.60;;
51660;SDS011;37741;49.748;8.490;2023-08-20T11:53:52;6.35;;;5.00;;
51660;SDS011;37741;49.748;8.490;2023-08-20T11:56:17;5.60;;;4.57;;
51660;SDS011;37741;49.748;8.490;2023-08-20T11:58:58;5.68;;;4.22;;
51660;SDS011;37741;49.748;8.490;2023-08-20T12:01:24;6.38;;;4.72;;
51660;SDS011;37741;49.748;8.490;2023-08-20T12:03:50;5.68;;;4.38;;
51660;SDS011;37741;49.748;8.490;2023-08-20T12:06:19;5.43;;;4.30;;
51660;SDS011;37741;49.748;8.490;2023-08-20T12:08:47;5.85;;;4.07;;
51660;SDS011;37741;49.748;8.490;2023-08-20T12:11:13;5.20;;;4.70;;
51660;SDS011;37741;49.748;8.490;2023-08-20T12:13:39;6.97;;;4.72;;
51660;SDS011;37741;49.748;8.490;2023-08-20T12:16:05;6.25;;;4.78;;
51660;SDS011;37741;49.748;8.490;2023-08-20T12:18:32;14.07;;;4.50;;
51660;SDS011;37741;49.748;8.490;2023-08-20T12:20:57;5.13;;;4.63;;
51660;SDS011;37741;49.748;8.490;2023-08-20T12:23:23;4.97;;;3.92;;
51660;SDS011;37741;49.748;8.490;2023-08-20T12:25:52;5.10;;;4.40;;
51660;SDS011;37741;49.748;8.490;2023-08-20T12:28:18;4.80;;;3.80;;
51660;SDS011;37741;49.748;8.490;2023-08-20T12:30:43;6.38;;;3.88;;
51660;SDS011;37741;49.748;8.490;2023-08-20T12:33:10;4.93;;;4.10;;
51660;SDS011;37741;49.748;8.490;2023-08-20T12:35:36;5.80;;;3.90;;
51660;SDS011;37741;49.748;8.490;2023-08-20T12:38:02;6.05;;;4.07;;
51660;SDS011;37741;49.748;8.490;2023-08-20T12:40:28;7.88;;;3.97;;
51660;SDS011;37741;49.748;8.490;2023-08-20T12:42:54;7.05;;;3.70;;
51660;SDS011;37741;49.748;8.490;2023-08-20T12:45:22;5.95;;;4.13;;
51660;SDS011;37741;49.748;8.490;2023-08-20T12:47:47;7.53;;;3.95;;
51660;SDS011;37741;49.748;8.490;2023-08-20T12:50:13;5.85;;;4.05;;
51660;SDS011;37741;49.748;8.490;2023-08-20T12:52:39;8.43;;;4.65;;
51660;SDS011;37741;49.748;8.490;2023-08-20T12:55:05;5.78;;;3.22;;
51660;SDS011;37741;49.748;8.490;2023-08-20T12:57:33;6.68;;;3.67;;
51660;SDS011;37741;49.748;8.490;2023-08-20T12:59:59;8.85;;;3.78;;
51660;SDS011;37741;49.748;8.490;2023-08-20T13:05:11;4.80;;;3.38;;
51660;SDS011;37741;49.748;8.490;2023-08-20T13:07:38;5.10;;;3.47;;
51660;SDS011;37741;49.748;8.490;2023-08-20T13:10:04;5.95;;;3.55;;
51660;SDS011;37741;49.748;8.490;2023-08-20T13:12:30;5.25;;;3.67;;
51660;SDS011;37741;49.748;8.490;2023-08-20T13:14:58;5.20;;;3.67;;
51660;SDS011;37741;49.748;8.490;2023-08-20T13:17:25;6.35;;;3.45;;
51660;SDS011;37741;49.748;8.490;2023-08-20T13:19:51;5.85;;;3.30;;
51660;SDS011;37741;49.748;8.490;2023-08-20T13:22:19;5.05;;;3.78;;
51660;SDS011;37741;49.748;8.490;2023-08-20T13:24:45;5.00;;;3.60;;
51660;SDS011;37741;49.748;8.490;2023-08-20T13:27:13;4.53;;;3.17;;
51660;SDS011;37741;49.748;8.490;2023-08-20T13:29:40;5.32;;;3.30;;
51660;SDS011;37741;49.748;8.490;2023-08-20T13:32:06;3.97;;;3.33;;
51660;SDS011;37741;49.748;8.490;2023-08-20T13:34:32;4.90;;;3.05;;
51660;SDS011;37741;49.748;8.490;2023-08-20T13:37:00;4.25;;;3.40;;
51660;SDS011;37741;49.748;8.490;2023-08-20T13:39:26;6.07;;;3.65;;
51660;SDS011;37741;49.748;8.490;2023-08-20T13:41:55;15.77;;;4.57;;
51660;SDS011;37741;49.748;8.490;2023-08-20T13:44:22;6.18;;;3.33;;
51660;SDS011;37741;49.748;8.490;2023-08-20T13:46:48;10.85;;;4.43;;
51660;SDS011;37741;49.748;8.490;2023-08-20T13:49:13;6.63;;;3.08;;
51660;SDS011;37741;49.748;8.490;2023-08-20T13:51:39;6.22;;;3.22;;
51660;SDS011;37741;49.748;8.490;2023-08-20T13:54:05;5.85;;;3.28;;
51660;SDS011;37741;49.748;8.490;2023-08-20T13:56:30;4.32;;;2.65;;
51660;SDS011;37741;49.748;8.490;2023-08-20T13:58:56;5.57;;;2.42;;
51660;SDS011;37741;49.748;8.490;2023-08-20T14:01:22;5.13;;;3.38;;
51660;SDS011;37741;49.748;8.490;2023-08-20T14:03:47;7.22;;;3.38;;
51660;SDS011;37741;49.748;8.490;2023-08-20T14:06:14;5.63;;;3.00;;
51660;SDS011;37741;49.748;8.490;2023-08-20T14:08:42;6.05;;;3.03;;
51660;SDS011;37741;49.748;8.490;2023-08-20T14:11:08;7.47;;;3.28;;
51660;SDS011;37741;49.748;8.490;2023-08-20T14:13:34;5.85;;;3.15;;
51660;SDS011;37741;49.748;8.490;2023-08-20T14:16:00;6.28;;;2.80;;
51660;SDS011;37741;49.748;8.490;2023-08-20T14:18:26;4.45;;;2.85;;
51660;SDS011;37741;49.748;8.490;2023-08-20T14:20:51;4.80;;;3.25;;
51660;SDS011;37741;49.748;8.490;2023-08-20T14:23:17;4.55;;;2.80;;
51660;SDS011;37741;49.748;8.490;2023-08-20T14:26:00;6.85;;;3.38;;
51660;SDS011;37741;49.748;8.490;2023-08-20T14:28:33;4.50;;;3.15;;
51660;SDS011;37741;49.748;8.490;2023-08-20T14:31:08;4.28;;;3.42;;
51660;SDS011;37741;49.748;8.490;2023-08-20T14:33:40;5.18;;;2.90;;
51660;SDS011;37741;49.748;8.490;2023-08-20T14:36:05;4.43;;;2.95;;
51660;SDS011;37741;49.748;8.490;2023-08-20T14:38:37;5.85;;;3.10;;
51660;SDS011;37741;49.748;8.490;2023-08-20T14:41:12;5.93;;;3.30;;
51660;SDS011;37741;49.748;8.490;2023-08-20T14:43:40;5.03;;;3.35;;
51660;SDS011;37741;49.748;8.490;2023-08-20T14:46:07;5.40;;;2.80;;
51660;SDS011;37741;49.748;8.490;2023-08-20T14:48:50;9.82;;;4.55;;
51660;SDS011;37741;49.748;8.490;2023-08-20T14:54:43;6.07;;;3.25;;
51660;SDS011;37741;49.748;8.490;2023-08-20T15:00:43;5.10;;;3.28;;
51660;SDS011;37741;49.748;8.490;2023-08-20T15:03:16;4.38;;;2.72;;
51660;SDS011;37741;49.748;8.490;2023-08-20T15:05:41;5.70;;;3.83;;
51660;SDS011;37741;49.748;8.490;2023-08-20T15:08:57;4.93;;;2.53;;
51660;SDS011;37741;49.748;8.490;2023-08-20T15:11:40;5.63;;;3.60;;
51660;SDS011;37741;49.748;8.490;2023-08-20T15:14:07;4.20;;;3.25;;
51660;SDS011;37741;49.748;8.490;2023-08-20T15:16:33;3.38;;;2.30;;
51660;SDS011;37741;49.748;8.490;2023-08-20T15:19:01;4.65;;;3.17;;
51660;SDS011;37741;49.748;8.490;2023-08-20T15:21:27;5.35;;;3.10;;
51660;SDS011;37741;49.748;8.490;2023-08-20T15:23:53;3.90;;;2.88;;
51660;SDS011;37741;49.748;8.490;2023-08-20T15:26:19;4.43;;;2.53;;
51660;SDS011;37741;49.748;8.490;2023-08-20T15:28:45;5.07;;;3.17;;
51660;SDS011;37741;49.748;8.490;2023-08-20T15:31:10;4.57;;;3.05;;